Amstetten, Austria

2:57 AM CEST on August 31, 2016 (GMT +0200)
Am Kreuzberg | | Change Station

Elev 971 ft 48.12 °N, 14.87 °E | Updated 1 minute ago

Clear
Clear
55.2 °F
Feels Like 55.2 °F
N
0.6
Wind Variable Wind from SE
Gusts 1.2 mph

Today
High -- | Low -- °F
--% Chance of Precip.
Yesterday
High -- | Low -- °F
Precip. -- in
Pressure 30.21 in
Visibility 6.2 miles
Clouds
Dew Point 52 °F
Humidity 87%
Rainfall 0.00 in
Snow Depth Not available.
6:17 AM 7:43 PM
Waning Crescent, 2% visible
METAR LOWL 310050Z AUTO 07009KT 9999 NCD 15/09 Q1023
Pressure 30.21 in
Visibility 6.2 miles
Clouds
Dew Point 52 °F
Humidity 87%
Rainfall 0.00 in
Snow Depth Not available.
6:17 AM 7:43 PM
Waning Crescent, 2% visible
METAR LOWL 310050Z AUTO 07009KT 9999 NCD 15/09 Q1023

10-Day Weather Forecast

×

Almanac

Astronomy

Aug. 31, 2016 Rise Set
Actual Time
Civil Twilight
Nautical Twilight
Astronomical Twilight
Moon
Length of Visible Light
Length of Day
Tomorrow will be .
, % of the Moon is Illuminated

Today's Extremes

Country Highs Country Lows

Community

WunderPhotos

Upload Photos

1,935,964 photos uploaded!

WunderBlog® & News

Nearby

Air Quality

  Air Quality AQ Index Pollutant
Not available.

Snow Depth

Station Depth Elevation

Earthquake Activity

City Distance Mag. Time & Date
Minimum magnitude displayed is 2.5.

Coastal Water Temperatures

Place Temperature

Stations

Nearby Weather Stations

Station Location Temp. Windchill Dew Point Humidity Wind Precip. Elev Updated Type